sensor_id;sensor_type;location;lat;lon;timestamp;pressure;altitude;pressure_sealevel;temperature;humidity
75403;BME280;63975;47.538;18.972;2022-10-04T00:01:26;99412.78;;;25.07;35.12
75403;BME280;63975;47.538;18.972;2022-10-04T00:04:33;99412.78;;;25.07;35.30
75403;BME280;63975;47.538;18.972;2022-10-04T00:07:54;99414.84;;;25.05;35.35
75403;BME280;63975;47.538;18.972;2022-10-04T00:11:05;99407.91;;;25.04;35.11
75403;BME280;63975;47.538;18.972;2022-10-04T00:14:15;99411.25;;;24.99;35.20
75403;BME280;63975;47.538;18.972;2022-10-04T00:17:22;99409.16;;;25.01;35.40
75403;BME280;63975;47.538;18.972;2022-10-04T00:24:08;99404.66;;;25.02;35.39
75403;BME280;63975;47.538;18.972;2022-10-04T00:27:21;99402.84;;;25.02;35.49
75403;BME280;63975;47.538;18.972;2022-10-04T00:30:24;99407.75;;;24.99;35.04
75403;BME280;63975;47.538;18.972;2022-10-04T00:33:57;99394.03;;;25.02;35.44
75403;BME280;63975;47.538;18.972;2022-10-04T00:37:22;99399.19;;;24.97;35.36
75403;BME280;63975;47.538;18.972;2022-10-04T00:41:23;99387.16;;;24.94;35.49
75403;BME280;63975;47.538;18.972;2022-10-04T00:47:25;99399.34;;;25.02;35.16
75403;BME280;63975;47.538;18.972;2022-10-04T00:50:53;99393.66;;;24.98;34.96
75403;BME280;63975;47.538;18.972;2022-10-04T00:54:20;99408.34;;;25.01;35.28
75403;BME280;63975;47.538;18.972;2022-10-04T00:57:41;99386.59;;;24.92;35.08
75403;BME280;63975;47.538;18.972;2022-10-04T01:00:47;99390.06;;;24.93;34.97
75403;BME280;63975;47.538;18.972;2022-10-04T01:03:52;99400.81;;;24.98;35.48
75403;BME280;63975;47.538;18.972;2022-10-04T01:06:58;99387.81;;;24.90;35.40
75403;BME280;63975;47.538;18.972;2022-10-04T01:10:17;99390.19;;;24.98;35.21
75403;BME280;63975;47.538;18.972;2022-10-04T01:13:25;99390.00;;;24.99;35.49
75403;BME280;63975;47.538;18.972;2022-10-04T01:16:32;99387.03;;;24.89;35.13
75403;BME280;63975;47.538;18.972;2022-10-04T01:19:35;99387.53;;;24.98;35.40
75403;BME280;63975;47.538;18.972;2022-10-04T01:22:42;99377.78;;;24.92;35.39
75403;BME280;63975;47.538;18.972;2022-10-04T01:25:48;99385.09;;;24.96;35.03
75403;BME280;63975;47.538;18.972;2022-10-04T01:28:52;99390.69;;;24.88;35.42
75403;BME280;63975;47.538;18.972;2022-10-04T01:31:56;99394.31;;;24.94;35.48
75403;BME280;63975;47.538;18.972;2022-10-04T01:34:59;99392.09;;;24.91;35.06
75403;BME280;63975;47.538;18.972;2022-10-04T01:38:05;99393.06;;;24.96;35.22
75403;BME280;63975;47.538;18.972;2022-10-04T01:41:10;99399.19;;;24.97;35.35
75403;BME280;63975;47.538;18.972;2022-10-04T01:47:56;99394.56;;;24.92;35.13
75403;BME280;63975;47.538;18.972;2022-10-04T01:51:06;99405.38;;;24.91;35.54
75403;BME280;63975;47.538;18.972;2022-10-04T01:54:13;99394.56;;;24.92;35.39
75403;BME280;63975;47.538;18.972;2022-10-04T01:57:23;99384.00;;;24.86;35.28
75403;BME280;63975;47.538;18.972;2022-10-04T02:00:27;99384.13;;;24.91;35.33
75403;BME280;63975;47.538;18.972;2022-10-04T02:03:42;99376.59;;;24.88;35.52
75403;BME280;63975;47.538;18.972;2022-10-04T02:06:50;99380.44;;;24.92;35.10
75403;BME280;63975;47.538;18.972;2022-10-04T02:09:56;99378.63;;;24.92;35.46
75403;BME280;63975;47.538;18.972;2022-10-04T02:13:01;99380.53;;;24.85;35.20
75403;BME280;63975;47.538;18.972;2022-10-04T02:16:10;99375.22;;;24.85;35.16
75403;BME280;63975;47.538;18.972;2022-10-04T02:19:14;99385.97;;;24.90;35.23
75403;BME280;63975;47.538;18.972;2022-10-04T02:22:17;99383.31;;;24.90;34.94
75403;BME280;63975;47.538;18.972;2022-10-04T02:25:20;99362.75;;;24.86;35.46
75403;BME280;63975;47.538;18.972;2022-10-04T02:28:31;99384.13;;;24.91;35.46
75403;BME280;63975;47.538;18.972;2022-10-04T02:31:36;99382.28;;;24.91;35.37
75403;BME280;63975;47.538;18.972;2022-10-04T02:34:58;99383.75;;;24.87;35.70
75403;BME280;63975;47.538;18.972;2022-10-04T02:38:08;99385.38;;;24.88;35.59
75403;BME280;63975;47.538;18.972;2022-10-04T02:41:20;99379.84;;;24.90;35.51
75403;BME280;63975;47.538;18.972;2022-10-04T02:44:27;99370.09;;;24.84;35.33
75403;BME280;63975;47.538;18.972;2022-10-04T02:47:43;99383.75;;;24.87;35.71
75403;BME280;63975;47.538;18.972;2022-10-04T02:50:49;99382.34;;;24.85;35.47
75403;BME280;63975;47.538;18.972;2022-10-04T02:57:19;99392.53;;;24.88;35.51
75403;BME280;63975;47.538;18.972;2022-10-04T03:00:25;99392.97;;;24.85;35.42
75403;BME280;63975;47.538;18.972;2022-10-04T03:03:36;99404.19;;;24.87;35.44
75403;BME280;63975;47.538;18.972;2022-10-04T03:06:41;99401.75;;;24.85;35.45
75403;BME280;63975;47.538;18.972;2022-10-04T03:09:45;99395.22;;;24.81;35.60
75403;BME280;63975;47.538;18.972;2022-10-04T03:12:50;99404.81;;;24.89;35.51
75403;BME280;63975;47.538;18.972;2022-10-04T03:15:53;99402.97;;;24.89;35.67
75403;BME280;63975;47.538;18.972;2022-10-04T03:18:56;99392.16;;;24.84;35.53
75403;BME280;63975;47.538;18.972;2022-10-04T03:22:08;99393.59;;;24.80;35.32
75403;BME280;63975;47.538;18.972;2022-10-04T03:25:14;99398.09;;;24.86;35.58
75403;BME280;63975;47.538;18.972;2022-10-04T03:28:18;99399.94;;;24.86;35.84
75403;BME280;63975;47.538;18.972;2022-10-04T03:31:21;99403.81;;;24.83;35.44
75403;BME280;63975;47.538;18.972;2022-10-04T03:34:27;99413.41;;;24.84;35.47
75403;BME280;63975;47.538;18.972;2022-10-04T03:37:36;99423.81;;;24.86;35.86
75403;BME280;63975;47.538;18.972;2022-10-04T03:40:42;99414.22;;;24.85;35.46
75403;BME280;63975;47.538;18.972;2022-10-04T03:43:47;99406.88;;;24.80;35.77
75403;BME280;63975;47.538;18.972;2022-10-04T03:46:51;99409.94;;;24.84;35.38
75403;BME280;63975;47.538;18.972;2022-10-04T03:49:54;99400.78;;;24.79;35.50
75403;BME280;63975;47.538;18.972;2022-10-04T03:53:02;99406.47;;;24.83;35.81
75403;BME280;63975;47.538;18.972;2022-10-04T03:56:11;99404.84;;;24.82;35.64
75403;BME280;63975;47.538;18.972;2022-10-04T03:59:16;99399.53;;;24.82;36.02
75403;BME280;63975;47.538;18.972;2022-10-04T04:05:37;99386.31;;;24.75;35.79
75403;BME280;63975;47.538;18.972;2022-10-04T04:08:42;99398.28;;;24.85;35.75
75403;BME280;63975;47.538;18.972;2022-10-04T04:11:49;99403.19;;;24.81;35.75
75403;BME280;63975;47.538;18.972;2022-10-04T04:14:52;99396.69;;;24.77;35.91
75403;BME280;63975;47.538;18.972;2022-10-04T04:17:57;99416.06;;;24.84;35.78
75403;BME280;63975;47.538;18.972;2022-10-04T04:21:02;99418.13;;;24.82;35.77
75403;BME280;63975;47.538;18.972;2022-10-04T04:24:14;99414.47;;;24.76;35.57
75403;BME280;63975;47.538;18.972;2022-10-04T04:27:21;99420.38;;;24.78;35.81
75403;BME280;63975;47.538;18.972;2022-10-04T04:30:30;99432.00;;;24.84;35.81
75403;BME280;63975;47.538;18.972;2022-10-04T04:33:52;99428.53;;;24.84;35.97
75403;BME280;63975;47.538;18.972;2022-10-04T04:37:02;99435.06;;;24.81;35.80
75403;BME280;63975;47.538;18.972;2022-10-04T04:40:19;99432.22;;;24.83;35.64
75403;BME280;63975;47.538;18.972;2022-10-04T04:43:26;99435.66;;;24.83;35.82
75403;BME280;63975;47.538;18.972;2022-10-04T04:46:29;99425.13;;;24.70;35.89
75403;BME280;63975;47.538;18.972;2022-10-04T04:49:32;99432.81;;;24.85;35.64
75403;BME280;63975;47.538;18.972;2022-10-04T04:52:42;99436.28;;;24.85;35.94
75403;BME280;63975;47.538;18.972;2022-10-04T05:00:21;99455.09;;;24.77;35.93
75403;BME280;63975;47.538;18.972;2022-10-04T05:03:27;99455.34;;;24.75;36.13
75403;BME280;63975;47.538;18.972;2022-10-04T05:06:34;99468.38;;;24.84;35.81
75403;BME280;63975;47.538;18.972;2022-10-04T05:09:37;99456.75;;;24.78;35.74
75403;BME280;63975;47.538;18.972;2022-10-04T05:12:42;99473.47;;;24.85;36.30
75403;BME280;63975;47.538;18.972;2022-10-04T05:15:44;99461.03;;;24.79;36.53
75403;BME280;63975;47.538;18.972;2022-10-04T05:18:54;99482.25;;;24.86;36.51
75403;BME280;63975;47.538;18.972;2022-10-04T05:22:01;99486.31;;;24.88;36.63
75403;BME280;63975;47.538;18.972;2022-10-04T05:25:09;99475.47;;;24.90;36.55
75403;BME280;63975;47.538;18.972;2022-10-04T05:28:16;99477.16;;;24.84;36.52
75403;BME280;63975;47.538;18.972;2022-10-04T05:31:52;99480.56;;;24.91;36.38
75403;BME280;63975;47.538;18.972;2022-10-04T05:34:58;99481.59;;;24.90;36.50
75403;BME280;63975;47.538;18.972;2022-10-04T05:38:07;99486.47;;;24.93;36.73
75403;BME280;63975;47.538;18.972;2022-10-04T05:41:30;99493.22;;;24.96;36.37
75403;BME280;63975;47.538;18.972;2022-10-04T05:44:45;99497.31;;;24.92;36.25
75403;BME280;63975;47.538;18.972;2022-10-04T05:47:52;99495.03;;;24.95;36.47
75403;BME280;63975;47.538;18.972;2022-10-04T05:50:55;99490.59;;;24.89;36.47
75403;BME280;63975;47.538;18.972;2022-10-04T05:53:59;99504.84;;;24.95;36.81
75403;BME280;63975;47.538;18.972;2022-10-04T06:12:15;99517.44;;;25.06;36.80
75403;BME280;63975;47.538;18.972;2022-10-04T06:49:30;99548.72;;;25.28;36.84
75403;BME280;63975;47.538;18.972;2022-10-04T07:02:39;99553.31;;;25.40;36.77
75403;BME280;63975;47.538;18.972;2022-10-04T07:06:03;99540.44;;;25.37;37.11
75403;BME280;63975;47.538;18.972;2022-10-04T07:09:22;99544.03;;;25.49;36.52
75403;BME280;63975;47.538;18.972;2022-10-04T07:12:33;99572.44;;;25.55;36.78
75403;BME280;63975;47.538;18.972;2022-10-04T07:15:55;99564.66;;;25.53;37.03
75403;BME280;63975;47.538;18.972;2022-10-04T07:22:35;99581.44;;;25.54;37.03
75403;BME280;63975;47.538;18.972;2022-10-04T07:25:45;99566.50;;;25.53;37.02
75403;BME280;63975;47.538;18.972;2022-10-04T07:28:53;99573.91;;;25.69;36.52
75403;BME280;63975;47.538;18.972;2022-10-04T07:58:47;99576.53;;;30.94;27.32
75403;BME280;63975;47.538;18.972;2022-10-04T08:02:48;99590.03;;;31.73;26.15
75403;BME280;63975;47.538;18.972;2022-10-04T08:08:50;99606.00;;;28.06;31.65
75403;BME280;63975;47.538;18.972;2022-10-04T08:21:16;99609.91;;;26.62;34.72
75403;BME280;63975;47.538;18.972;2022-10-04T08:29:42;99617.41;;;26.36;35.27
75403;BME280;63975;47.538;18.972;2022-10-04T08:56:31;99630.41;;;26.07;35.65
75403;BME280;63975;47.538;18.972;2022-10-04T09:48:27;99608.41;;;25.26;34.61
75403;BME280;63975;47.538;18.972;2022-10-04T10:17:28;99656.09;;;25.52;34.20
75403;BME280;63975;47.538;18.972;2022-10-04T10:28:39;99642.38;;;25.24;34.31
75403;BME280;63975;47.538;18.972;2022-10-04T11:01:14;99649.19;;;25.13;33.78
75403;BME280;63975;47.538;18.972;2022-10-04T11:08:58;99659.84;;;25.07;34.14
75403;BME280;63975;47.538;18.972;2022-10-04T11:17:12;99612.13;;;24.94;34.50
75403;BME280;63975;47.538;18.972;2022-10-04T12:24:11;99659.22;;;25.11;34.27
75403;BME280;63975;47.538;18.972;2022-10-04T12:40:29;99605.31;;;24.66;33.75
75403;BME280;63975;47.538;18.972;2022-10-04T13:24:55;99655.63;;;25.30;33.27
75403;BME280;63975;47.538;18.972;2022-10-04T13:48:55;99608.78;;;25.05;33.62
75403;BME280;63975;47.538;18.972;2022-10-04T13:53:03;99677.47;;;25.33;33.35
75403;BME280;63975;47.538;18.972;2022-10-04T14:12:42;99680.66;;;25.72;33.82
75403;BME280;63975;47.538;18.972;2022-10-04T14:19:47;99686.97;;;25.78;33.94
75403;BME280;63975;47.538;18.972;2022-10-04T14:40:23;99697.19;;;25.81;36.15
75403;BME280;63975;47.538;18.972;2022-10-04T14:46:58;99656.91;;;25.53;35.71
75403;BME280;63975;47.538;18.972;2022-10-04T14:53:29;99712.47;;;25.86;35.45
75403;BME280;63975;47.538;18.972;2022-10-04T14:56:44;99659.75;;;25.58;35.45
75403;BME280;63975;47.538;18.972;2022-10-04T15:00:16;99711.25;;;25.88;35.12
75403;BME280;63975;47.538;18.972;2022-10-04T15:07:17;99719.66;;;25.85;35.45
75403;BME280;63975;47.538;18.972;2022-10-04T15:10:50;99722.91;;;25.87;35.28
75403;BME280;63975;47.538;18.972;2022-10-04T15:13:59;99688.13;;;25.64;35.09
75403;BME280;63975;47.538;18.972;2022-10-04T15:17:25;99702.56;;;25.74;34.99
75403;BME280;63975;47.538;18.972;2022-10-04T15:21:01;99665.94;;;25.52;35.45
75403;BME280;63975;47.538;18.972;2022-10-04T15:38:14;99733.75;;;25.86;34.86
75403;BME280;63975;47.538;18.972;2022-10-04T15:49:15;99746.09;;;25.80;34.75
75403;BME280;63975;47.538;18.972;2022-10-04T16:06:24;99779.22;;;25.84;34.68
75403;BME280;63975;47.538;18.972;2022-10-04T16:09:52;99774.53;;;25.79;34.68
75403;BME280;63975;47.538;18.972;2022-10-04T16:16:45;99791.50;;;25.85;34.74
75403;BME280;63975;47.538;18.972;2022-10-04T16:23:26;99796.19;;;25.83;34.45
75403;BME280;63975;47.538;18.972;2022-10-04T16:29:46;99785.84;;;25.75;34.79
75403;BME280;63975;47.538;18.972;2022-10-04T16:33:28;99794.56;;;25.82;34.80
75403;BME280;63975;47.538;18.972;2022-10-04T16:36:53;99791.31;;;25.80;34.46
75403;BME280;63975;47.538;18.972;2022-10-04T16:46:29;99809.53;;;25.76;34.57
75403;BME280;63975;47.538;18.972;2022-10-04T16:49:44;99783.47;;;25.60;34.80
75403;BME280;63975;47.538;18.972;2022-10-04T16:52:57;99791.59;;;25.65;34.59
75403;BME280;63975;47.538;18.972;2022-10-04T16:56:13;99784.09;;;25.49;34.67
75403;BME280;63975;47.538;18.972;2022-10-04T17:03:03;99824.69;;;25.76;34.38
75403;BME280;63975;47.538;18.972;2022-10-04T17:06:14;99836.38;;;25.75;34.65
75403;BME280;63975;47.538;18.972;2022-10-04T17:09:30;99822.72;;;25.65;34.51
75403;BME280;63975;47.538;18.972;2022-10-04T17:12:57;99834.78;;;25.67;34.83
75403;BME280;63975;47.538;18.972;2022-10-04T17:19:40;99840.72;;;25.63;34.50
75403;BME280;63975;47.538;18.972;2022-10-04T17:26:50;99858.91;;;25.66;34.65
75403;BME280;63975;47.538;18.972;2022-10-04T17:30:16;99857.88;;;25.67;34.51
75403;BME280;63975;47.538;18.972;2022-10-04T17:36:42;99859.75;;;25.60;34.31
75403;BME280;63975;47.538;18.972;2022-10-04T17:49:27;99879.19;;;25.60;34.53
75403;BME280;63975;47.538;18.972;2022-10-04T17:52:59;99853.25;;;25.43;34.67
75403;BME280;63975;47.538;18.972;2022-10-04T17:56:30;99882.47;;;25.56;34.54
75403;BME280;63975;47.538;18.972;2022-10-04T17:59:43;99878.00;;;25.50;34.71
75403;BME280;63975;47.538;18.972;2022-10-04T18:03:02;99865.78;;;25.36;34.73
75403;BME280;63975;47.538;18.972;2022-10-04T18:06:30;99891.06;;;25.58;34.63
75403;BME280;63975;47.538;18.972;2022-10-04T18:09:42;99863.31;;;25.41;34.75
75403;BME280;63975;47.538;18.972;2022-10-04T18:13:04;99861.06;;;25.38;34.54
75403;BME280;63975;47.538;18.972;2022-10-04T18:16:23;99885.38;;;25.54;34.78
75403;BME280;63975;47.538;18.972;2022-10-04T18:19:54;99869.03;;;25.38;34.83
75403;BME280;63975;47.538;18.972;2022-10-04T18:23:00;99875.59;;;25.35;34.65
75403;BME280;63975;47.538;18.972;2022-10-04T18:26:23;99905.81;;;25.54;34.46
75403;BME280;63975;47.538;18.972;2022-10-04T18:29:42;99905.22;;;25.52;34.80
75403;BME280;63975;47.538;18.972;2022-10-04T18:32:53;99882.53;;;25.36;34.74
75403;BME280;63975;47.538;18.972;2022-10-04T18:36:11;99872.16;;;25.28;34.69
75403;BME280;63975;47.538;18.972;2022-10-04T18:39:18;99880.72;;;25.30;34.70
75403;BME280;63975;47.538;18.972;2022-10-04T18:42:27;99876.47;;;25.22;34.72
75403;BME280;63975;47.538;18.972;2022-10-04T18:45:33;99902.34;;;25.40;34.58
75403;BME280;63975;47.538;18.972;2022-10-04T18:55:32;99924.41;;;25.47;34.63
75403;BME280;63975;47.538;18.972;2022-10-04T19:02:34;99942.63;;;25.44;34.83
75403;BME280;63975;47.538;18.972;2022-10-04T19:13:13;99936.31;;;25.38;34.62
75403;BME280;63975;47.538;18.972;2022-10-04T19:19:54;99947.56;;;25.40;34.62
75403;BME280;63975;47.538;18.972;2022-10-04T19:23:41;99941.44;;;25.33;34.83
75403;BME280;63975;47.538;18.972;2022-10-04T19:27:04;99925.75;;;25.18;34.47
75403;BME280;63975;47.538;18.972;2022-10-04T19:30:15;99940.44;;;25.27;34.69
75403;BME280;63975;47.538;18.972;2022-10-04T19:33:40;99967.19;;;25.39;34.50
75403;BME280;63975;47.538;18.972;2022-10-04T19:36:58;99927.19;;;25.14;34.79
75403;BME280;63975;47.538;18.972;2022-10-04T19:46:57;99946.78;;;25.13;34.62
75403;BME280;63975;47.538;18.972;2022-10-04T19:50:23;99981.94;;;25.35;34.52
75403;BME280;63975;47.538;18.972;2022-10-04T19:53:35;99983.34;;;25.31;34.75
75403;BME280;63975;47.538;18.972;2022-10-04T19:56:48;99969.06;;;25.25;34.81
75403;BME280;63975;47.538;18.972;2022-10-04T19:59:51;99989.09;;;25.35;34.77
75403;BME280;63975;47.538;18.972;2022-10-04T20:02:53;99960.06;;;25.20;34.93
75403;BME280;63975;47.538;18.972;2022-10-04T20:05:56;99969.28;;;25.17;34.90
75403;BME280;63975;47.538;18.972;2022-10-04T20:21:44;99985.81;;;25.19;34.79
75403;BME280;63975;47.538;18.972;2022-10-04T20:30:52;99994.00;;;25.24;34.59
75403;BME280;63975;47.538;18.972;2022-10-04T20:48:16;99980.75;;;25.05;34.86
75403;BME280;63975;47.538;18.972;2022-10-04T20:51:19;100017.94;;;25.24;34.85
75403;BME280;63975;47.538;18.972;2022-10-04T20:54:23;100019.16;;;25.22;35.05
75403;BME280;63975;47.538;18.972;2022-10-04T20:57:29;100012.22;;;25.14;34.56
75403;BME280;63975;47.538;18.972;2022-10-04T21:00:32;100021.19;;;25.20;34.68
75403;BME280;63975;47.538;18.972;2022-10-04T21:03:35;99986.66;;;25.00;34.68
75403;BME280;63975;47.538;18.972;2022-10-04T21:06:54;99985.06;;;24.93;34.72
75403;BME280;63975;47.538;18.972;2022-10-04T21:10:14;100001.19;;;24.98;34.69
75403;BME280;63975;47.538;18.972;2022-10-04T21:13:46;100026.72;;;25.18;34.94
75403;BME280;63975;47.538;18.972;2022-10-04T21:16:55;100024.06;;;25.18;34.99
75403;BME280;63975;47.538;18.972;2022-10-04T21:20:14;99977.09;;;24.93;34.57
75403;BME280;63975;47.538;18.972;2022-10-04T21:23:36;100014.66;;;25.09;34.82
75403;BME280;63975;47.538;18.972;2022-10-04T21:26:53;100033.06;;;25.17;35.01
75403;BME280;63975;47.538;18.972;2022-10-04T21:29:56;100014.88;;;25.01;34.90
75403;BME280;63975;47.538;18.972;2022-10-04T21:32:59;100015.88;;;25.00;34.68
75403;BME280;63975;47.538;18.972;2022-10-04T21:36:02;100026.09;;;25.03;34.94
75403;BME280;63975;47.538;18.972;2022-10-04T21:39:05;100036.53;;;25.11;34.99
75403;BME280;63975;47.538;18.972;2022-10-04T21:42:10;100037.56;;;25.10;35.02
75403;BME280;63975;47.538;18.972;2022-10-04T21:45:13;100047.78;;;25.13;35.05
75403;BME280;63975;47.538;18.972;2022-10-04T21:48:15;100019.78;;;24.91;35.10
75403;BME280;63975;47.538;18.972;2022-10-04T21:51:18;100028.97;;;24.95;34.67
75403;BME280;63975;47.538;18.972;2022-10-04T21:54:20;100060.88;;;25.15;34.97
75403;BME280;63975;47.538;18.972;2022-10-04T21:57:23;100035.13;;;24.96;34.88
75403;BME280;63975;47.538;18.972;2022-10-04T22:00:25;100052.06;;;25.01;34.68
75403;BME280;63975;47.538;18.972;2022-10-04T22:03:27;100041.84;;;24.98;34.81
75403;BME280;63975;47.538;18.972;2022-10-04T22:06:29;100045.53;;;24.97;35.02
75403;BME280;63975;47.538;18.972;2022-10-04T22:09:32;100053.09;;;25.07;34.83
75403;BME280;63975;47.538;18.972;2022-10-04T22:12:35;100034.91;;;24.91;34.74
75403;BME280;63975;47.538;18.972;2022-10-04T22:15:37;100045.53;;;24.97;35.01
75403;BME280;63975;47.538;18.972;2022-10-04T22:18:40;100032.25;;;24.91;35.16
75403;BME280;63975;47.538;18.972;2022-10-04T22:21:42;100062.28;;;25.04;35.00
75403;BME280;63975;47.538;18.972;2022-10-04T22:24:44;100012.19;;;24.75;34.71
75403;BME280;63975;47.538;18.972;2022-10-04T22:27:47;100042.88;;;24.91;35.06
75403;BME280;63975;47.538;18.972;2022-10-04T22:30:50;100066.38;;;25.07;35.04
75403;BME280;63975;47.538;18.972;2022-10-04T22:33:55;100015.84;;;24.80;34.72
75403;BME280;63975;47.538;18.972;2022-10-04T22:36:57;100056.38;;;25.02;34.68
75403;BME280;63975;47.538;18.972;2022-10-04T22:40:00;100066.19;;;25.02;34.98
75403;BME280;63975;47.538;18.972;2022-10-04T22:43:02;100060.22;;;25.00;34.84
75403;BME280;63975;47.538;18.972;2022-10-04T22:46:12;100034.44;;;24.80;34.99
75403;BME280;63975;47.538;18.972;2022-10-04T22:49:18;100077.22;;;25.05;34.79
75403;BME280;63975;47.538;18.972;2022-10-04T22:52:23;100064.13;;;24.97;34.71
75403;BME280;63975;47.538;18.972;2022-10-04T22:55:25;100020.16;;;24.68;34.87
75403;BME280;63975;47.538;18.972;2022-10-04T22:58:27;100046.34;;;24.85;34.89
75403;BME280;63975;47.538;18.972;2022-10-04T23:01:30;100047.34;;;24.84;35.25
75403;BME280;63975;47.538;18.972;2022-10-04T23:04:32;100077.00;;;25.00;34.83
75403;BME280;63975;47.538;18.972;2022-10-04T23:07:35;100066.59;;;24.99;34.80
75403;BME280;63975;47.538;18.972;2022-10-04T23:10:39;100078.63;;;25.01;35.01
75403;BME280;63975;47.538;18.972;2022-10-04T23:13:42;100063.28;;;24.90;35.06
75403;BME280;63975;47.538;18.972;2022-10-04T23:16:44;100073.09;;;24.96;35.10
75403;BME280;63975;47.538;18.972;2022-10-04T23:19:48;100081.47;;;25.00;34.62
75403;BME280;63975;47.538;18.972;2022-10-04T23:22:51;100039.56;;;24.69;35.04
75403;BME280;63975;47.538;18.972;2022-10-04T23:25:55;100083.53;;;24.91;34.87
75403;BME280;63975;47.538;18.972;2022-10-04T23:28:58;100066.34;;;24.87;35.09
75403;BME280;63975;47.538;18.972;2022-10-04T23:32:08;100061.81;;;24.81;34.80
75403;BME280;63975;47.538;18.972;2022-10-04T23:35:21;100102.97;;;24.98;35.02
75403;BME280;63975;47.538;18.972;2022-10-04T23:38:24;100079.84;;;24.86;34.96
75403;BME280;63975;47.538;18.972;2022-10-04T23:41:27;100084.53;;;24.84;34.77
75403;BME280;63975;47.538;18.972;2022-10-04T23:44:34;100094.56;;;24.95;34.67
75403;BME280;63975;47.538;18.972;2022-10-04T23:47:37;100090.06;;;24.89;34.86
75403;BME280;63975;47.538;18.972;2022-10-04T23:50:39;100081.84;;;24.77;34.85
75403;BME280;63975;47.538;18.972;2022-10-04T23:53:43;100057.09;;;24.63;35.13
75403;BME280;63975;47.538;18.972;2022-10-04T23:56:47;100080.22;;;24.76;34.83
75403;BME280;63975;47.538;18.972;2022-10-04T23:59:50;100111.34;;;24.95;35.04
